createdAt,value
2023-05-14T00:01:43.234Z,37.81
2023-05-14T00:04:10.638Z,37.93
2023-05-14T00:06:37.677Z,38.07
2023-05-14T00:09:06.346Z,37.95
2023-05-14T00:11:33.547Z,38.07
2023-05-14T00:14:00.694Z,37.99
2023-05-14T00:16:27.911Z,38.22
2023-05-14T00:18:55.112Z,38.06
2023-05-14T00:21:22.347Z,38.21
2023-05-14T00:23:49.495Z,38.35
2023-05-14T00:26:16.626Z,38.49
2023-05-14T00:28:44.463Z,38.34
2023-05-14T00:31:11.674Z,38.28
2023-05-14T00:33:38.727Z,38.28
2023-05-14T00:36:06.324Z,38.26
2023-05-14T00:38:33.479Z,38.34
2023-05-14T00:41:00.732Z,38.37
2023-05-14T00:43:28.073Z,38.49
2023-05-14T00:45:56.024Z,38.35
2023-05-14T00:48:23.932Z,38.47
2023-05-14T00:50:52.081Z,38.45
2023-05-14T00:53:20.740Z,38.54
2023-05-14T00:55:49.445Z,38.59
2023-05-14T00:58:18.280Z,38.57
2023-05-14T01:00:45.938Z,38.73
2023-05-14T01:03:13.269Z,38.66
2023-05-14T01:06:01.134Z,38.71
2023-05-14T01:09:06.736Z,38.76
2023-05-14T01:11:48.452Z,38.90
2023-05-14T01:14:28.430Z,38.89
2023-05-14T01:16:58.904Z,38.91
2023-05-14T01:19:43.358Z,38.88
2023-05-14T01:22:11.850Z,38.97
2023-05-14T01:24:39.250Z,38.97
2023-05-14T01:27:37.514Z,38.77
2023-05-14T01:30:33.781Z,39.06
2023-05-14T01:33:03.761Z,39.31
2023-05-14T01:35:31.364Z,39.19
2023-05-14T01:38:03.696Z,39.30
2023-05-14T01:40:33.042Z,39.22
2023-05-14T01:43:01.132Z,39.18
2023-05-14T01:45:28.338Z,39.40
2023-05-14T01:47:55.440Z,39.45
2023-05-14T01:50:23.103Z,39.34
2023-05-14T01:52:53.375Z,39.44
2023-05-14T01:55:21.288Z,39.49
2023-05-14T01:57:48.524Z,39.60
2023-05-14T02:00:15.957Z,39.62
2023-05-14T02:02:43.057Z,39.39
2023-05-14T02:05:12.364Z,39.59
2023-05-14T02:07:39.748Z,39.53
2023-05-14T02:10:07.783Z,39.68
2023-05-14T02:12:35.032Z,39.59
2023-05-14T02:15:03.815Z,39.62
2023-05-14T02:17:30.956Z,39.77
2023-05-14T02:19:58.431Z,39.72
2023-05-14T02:22:25.919Z,39.95
2023-05-14T02:24:52.998Z,39.92
2023-05-14T02:27:20.229Z,39.82
2023-05-14T02:29:48.317Z,40.12
2023-05-14T02:32:15.456Z,39.94
2023-05-14T02:34:42.659Z,40.15
2023-05-14T02:37:09.848Z,39.98
2023-05-14T02:39:37.561Z,39.92
2023-05-14T02:42:05.017Z,40.04
2023-05-14T02:44:32.504Z,40.02
2023-05-14T02:46:59.722Z,40.20
2023-05-14T02:49:26.901Z,40.11
2023-05-14T02:51:54.557Z,40.30
2023-05-14T02:54:21.624Z,40.30
2023-05-14T02:56:48.863Z,40.38
2023-05-14T02:59:16.080Z,40.33
2023-05-14T03:01:43.662Z,40.39
2023-05-14T03:04:11.674Z,40.42
2023-05-14T03:06:38.874Z,40.24
2023-05-14T03:09:06.210Z,40.51
2023-05-14T03:11:33.826Z,40.46
2023-05-14T03:14:01.326Z,40.51
2023-05-14T03:16:28.469Z,40.54
2023-05-14T03:18:55.657Z,40.36
2023-05-14T03:21:22.914Z,40.62
2023-05-14T03:23:50.070Z,40.52
2023-05-14T03:26:19.031Z,40.71
2023-05-14T03:28:46.101Z,40.74
2023-05-14T03:31:13.228Z,40.63
2023-05-14T03:33:40.934Z,40.63
2023-05-14T03:36:08.228Z,41.02
2023-05-14T03:38:35.465Z,40.96
2023-05-14T03:41:02.669Z,40.77
2023-05-14T03:43:29.991Z,40.78
2023-05-14T03:45:57.071Z,40.87
2023-05-14T03:48:24.462Z,40.97
2023-05-14T03:50:51.733Z,40.91
2023-05-14T03:53:18.837Z,41.06
2023-05-14T03:55:46.340Z,41.10
2023-05-14T03:58:14.614Z,41.09
2023-05-14T04:00:42.591Z,41.00
2023-05-14T04:03:11.385Z,40.97
2023-05-14T04:05:38.895Z,41.21
2023-05-14T04:08:06.589Z,41.06
2023-05-14T04:10:33.806Z,41.11
2023-05-14T04:13:01.080Z,41.18
2023-05-14T04:15:32.451Z,41.24
2023-05-14T04:17:59.761Z,41.13
2023-05-14T04:20:28.132Z,41.17
2023-05-14T04:22:55.778Z,41.22
2023-05-14T04:25:23.034Z,41.32
2023-05-14T04:27:50.167Z,41.27
2023-05-14T04:30:17.333Z,41.32
2023-05-14T04:32:44.571Z,41.17
2023-05-14T04:35:13.015Z,41.47
2023-05-14T04:37:40.622Z,41.36
2023-05-14T04:40:11.331Z,41.42
2023-05-14T04:42:38.996Z,41.68
2023-05-14T04:45:07.026Z,41.51
2023-05-14T04:47:34.352Z,41.64
2023-05-14T04:50:01.775Z,41.58
2023-05-14T04:52:28.984Z,41.58
2023-05-14T04:54:57.003Z,41.57
2023-05-14T04:57:24.222Z,41.77
2023-05-14T04:59:51.354Z,41.70
2023-05-14T05:02:18.597Z,41.66
2023-05-14T05:04:47.194Z,41.65
2023-05-14T05:07:14.721Z,41.74
2023-05-14T05:09:43.250Z,41.73
2023-05-14T05:12:10.632Z,41.73
2023-05-14T05:14:37.761Z,41.65
2023-05-14T05:17:05.300Z,41.74
2023-05-14T05:19:42.555Z,41.74
2023-05-14T05:22:11.200Z,41.81
2023-05-14T05:24:38.406Z,42.05
2023-05-14T05:27:06.185Z,41.89
2023-05-14T05:29:33.638Z,41.88
2023-05-14T05:32:01.112Z,42.00
2023-05-14T05:34:28.273Z,41.85
2023-05-14T05:36:55.400Z,41.93
2023-05-14T05:39:22.515Z,42.07
2023-05-14T05:41:49.689Z,41.99
2023-05-14T05:44:16.844Z,41.87
2023-05-14T05:46:43.887Z,42.07
2023-05-14T05:49:11.033Z,41.99
2023-05-14T05:51:38.085Z,42.05
2023-05-14T05:54:05.390Z,41.94
2023-05-14T05:56:32.573Z,42.02
2023-05-14T05:58:59.700Z,41.97
2023-05-14T06:01:26.936Z,41.95
2023-05-14T06:03:54.013Z,41.99
2023-05-14T06:06:21.965Z,41.97
2023-05-14T06:08:49.176Z,41.90
2023-05-14T06:11:17.122Z,42.00
2023-05-14T06:13:44.309Z,41.95
2023-05-14T06:16:11.603Z,41.72
2023-05-14T06:18:38.699Z,41.79
2023-05-14T06:21:06.049Z,41.72
2023-05-14T06:23:33.451Z,41.76
2023-05-14T06:26:00.601Z,41.67
2023-05-14T06:28:27.804Z,41.81
2023-05-14T06:30:55.027Z,41.54
2023-05-14T06:33:29.715Z,41.51
2023-05-14T06:36:01.111Z,41.49
2023-05-14T06:38:28.163Z,41.57
2023-05-14T06:40:55.325Z,41.46
2023-05-14T06:43:22.789Z,41.38
2023-05-14T06:45:51.045Z,41.41
2023-05-14T06:48:19.108Z,41.33
2023-05-14T06:50:47.766Z,41.38
2023-05-14T06:53:15.474Z,41.34
2023-05-14T06:55:42.669Z,41.06
2023-05-14T06:58:10.072Z,41.13
2023-05-14T07:00:37.182Z,41.05
2023-05-14T07:03:04.420Z,40.92
2023-05-14T07:05:31.776Z,40.95
2023-05-14T07:07:58.912Z,40.90
2023-05-14T07:10:26.464Z,40.99
2023-05-14T07:12:53.797Z,40.91
2023-05-14T07:15:21.264Z,40.78
2023-05-14T07:17:48.435Z,40.76
2023-05-14T07:20:15.654Z,40.68
2023-05-14T07:22:42.789Z,40.62
2023-05-14T07:25:10.189Z,40.21
2023-05-14T07:27:37.384Z,40.25
2023-05-14T07:30:04.736Z,40.03
2023-05-14T07:32:31.803Z,40.05
2023-05-14T07:34:59.062Z,39.97
2023-05-14T07:37:26.306Z,39.75
2023-05-14T07:39:53.881Z,39.60
2023-05-14T07:42:34.518Z,39.74
2023-05-14T07:45:04.163Z,39.55
2023-05-14T07:47:31.563Z,39.67
2023-05-14T07:49:59.314Z,39.40
2023-05-14T07:52:26.741Z,39.45
2023-05-14T07:54:53.899Z,39.26
2023-05-14T07:57:21.073Z,39.22
2023-05-14T07:59:48.798Z,39.04
2023-05-14T08:02:17.043Z,39.03
2023-05-14T08:04:45.038Z,39.13
2023-05-14T08:07:12.172Z,39.08
2023-05-14T08:09:39.307Z,38.64
2023-05-14T08:12:07.608Z,38.94
2023-05-14T08:14:34.727Z,38.78
2023-05-14T08:17:01.901Z,38.73
2023-05-14T08:19:29.075Z,38.72
2023-05-14T08:21:56.194Z,38.43
2023-05-14T08:24:23.308Z,38.33
2023-05-14T08:26:50.514Z,38.48
2023-05-14T08:29:17.664Z,38.20
2023-05-14T08:31:44.922Z,38.34
2023-05-14T08:34:12.100Z,37.95
2023-05-14T08:36:39.543Z,38.01
2023-05-14T08:39:09.813Z,37.94
2023-05-14T08:41:37.797Z,38.05
2023-05-14T08:44:04.947Z,37.82
2023-05-14T08:46:33.101Z,37.68
2023-05-14T08:49:15.033Z,37.71
2023-05-14T08:51:43.358Z,37.52
2023-05-14T08:54:14.661Z,37.39
2023-05-14T08:56:42.359Z,37.32
2023-05-14T08:59:09.482Z,37.29
2023-05-14T09:01:43.257Z,37.17
2023-05-14T09:04:11.716Z,37.34
2023-05-14T09:06:40.217Z,37.08
2023-05-14T09:09:07.334Z,37.10
2023-05-14T09:11:34.452Z,37.01
2023-05-14T09:14:01.786Z,37.10
2023-05-14T09:16:29.051Z,36.87
2023-05-14T09:18:56.361Z,36.77
2023-05-14T09:21:23.484Z,36.68
2023-05-14T09:23:57.082Z,36.62
2023-05-14T09:26:26.508Z,36.47
2023-05-14T09:28:57.508Z,36.34
2023-05-14T09:31:24.704Z,36.37
2023-05-14T09:33:52.218Z,36.36
2023-05-14T09:36:19.817Z,36.19
2023-05-14T09:38:47.041Z,36.01
2023-05-14T09:41:14.173Z,35.90
2023-05-14T09:43:41.293Z,35.83
2023-05-14T09:46:08.339Z,35.80
2023-05-14T09:48:35.793Z,35.78
2023-05-14T09:51:04.625Z,35.85
2023-05-14T09:53:34.429Z,35.78
2023-05-14T09:56:01.515Z,35.64
2023-05-14T09:58:29.759Z,35.61
2023-05-14T10:00:57.852Z,35.53
2023-05-14T10:03:28.103Z,35.32
2023-05-14T10:05:58.617Z,35.18
2023-05-14T10:08:36.260Z,35.14
2023-05-14T10:11:12.471Z,35.21
2023-05-14T10:13:50.422Z,35.03
2023-05-14T10:16:25.517Z,34.84
2023-05-14T10:19:00.953Z,34.79
2023-05-14T10:21:31.686Z,34.80
2023-05-14T10:23:58.882Z,34.61
2023-05-14T10:26:26.406Z,34.51
2023-05-14T10:28:53.781Z,34.50
2023-05-14T10:31:24.480Z,34.23
2023-05-14T10:33:51.826Z,34.36
2023-05-14T10:36:19.138Z,34.20
2023-05-14T10:38:47.282Z,34.29
2023-05-14T10:41:17.974Z,34.09
2023-05-14T10:43:45.260Z,33.97
2023-05-14T10:46:13.977Z,33.91
2023-05-14T10:48:43.481Z,33.94
2023-05-14T10:51:11.826Z,33.90
2023-05-14T10:53:43.368Z,33.90
2023-05-14T10:56:14.508Z,33.94
2023-05-14T10:58:45.881Z,33.87
2023-05-14T11:01:13.872Z,33.88
2023-05-14T11:03:46.413Z,33.66
2023-05-14T11:06:15.946Z,33.38
2023-05-14T11:08:44.678Z,33.37
2023-05-14T11:11:12.583Z,33.37
2023-05-14T11:13:39.692Z,33.49
2023-05-14T11:18:38.874Z,33.19
2023-05-14T11:21:06.241Z,33.15
2023-05-14T11:23:33.370Z,33.15
2023-05-14T11:26:00.529Z,33.09
2023-05-14T11:28:27.776Z,33.05
2023-05-14T11:30:54.970Z,32.86
2023-05-14T11:33:22.072Z,32.78
2023-05-14T11:35:49.321Z,32.82
2023-05-14T11:38:20.506Z,32.82
2023-05-14T11:40:55.476Z,32.87
2023-05-14T11:43:26.324Z,32.65
2023-05-14T11:45:54.379Z,32.43
2023-05-14T11:48:22.317Z,32.38
2023-05-14T11:50:51.180Z,32.48
2023-05-14T11:53:29.622Z,32.39
2023-05-14T11:56:00.339Z,32.33
2023-05-14T11:58:27.442Z,32.27
2023-05-14T12:00:55.941Z,32.33
2023-05-14T12:03:26.398Z,32.31
2023-05-14T12:06:02.237Z,32.23
2023-05-14T12:08:31.454Z,32.22
2023-05-14T12:11:00.475Z,32.26
2023-05-14T12:13:29.171Z,32.24
2023-05-14T12:15:58.072Z,32.26
2023-05-14T12:18:27.241Z,32.29
2023-05-14T12:20:55.023Z,32.16
2023-05-14T12:23:30.436Z,32.03
2023-05-14T12:26:06.624Z,31.99
2023-05-14T12:28:37.674Z,32.13
2023-05-14T12:31:05.769Z,32.05
2023-05-14T12:33:32.936Z,32.00
2023-05-14T12:36:17.469Z,31.98
2023-05-14T12:38:58.529Z,32.01
2023-05-14T12:41:25.680Z,31.96
2023-05-14T12:43:52.799Z,32.00
2023-05-14T12:46:19.983Z,32.05
2023-05-14T12:48:47.280Z,31.90
2023-05-14T12:51:15.022Z,31.85
2023-05-14T12:53:42.115Z,31.78
2023-05-14T12:56:09.555Z,31.67
2023-05-14T12:58:36.802Z,31.62
2023-05-14T13:01:05.555Z,31.48
2023-05-14T13:03:32.823Z,31.31
2023-05-14T13:05:59.983Z,31.31
2023-05-14T13:08:27.420Z,31.14
2023-05-14T13:10:55.510Z,31.20
2023-05-14T13:13:23.749Z,31.29
2023-05-14T13:15:53.032Z,31.22
2023-05-14T13:18:20.096Z,31.07
2023-05-14T13:20:47.686Z,30.99
2023-05-14T13:23:15.377Z,31.07
2023-05-14T13:25:42.525Z,31.05
2023-05-14T13:28:09.901Z,31.02
2023-05-14T13:30:36.954Z,31.03
2023-05-14T13:33:04.416Z,30.96
2023-05-14T13:35:31.640Z,31.03
2023-05-14T13:37:58.790Z,30.92
2023-05-14T13:40:26.171Z,30.81
2023-05-14T13:42:53.321Z,30.74
2023-05-14T13:45:20.433Z,30.77
2023-05-14T13:47:49.373Z,30.63
2023-05-14T13:50:16.662Z,30.69
2023-05-14T13:52:43.801Z,30.59
2023-05-14T13:55:10.989Z,30.62
2023-05-14T13:57:39.905Z,30.73
2023-05-14T14:00:09.636Z,30.64
2023-05-14T14:02:36.844Z,30.66
2023-05-14T14:05:05.462Z,30.55
2023-05-14T14:07:32.567Z,30.55
2023-05-14T14:10:01.656Z,30.54
2023-05-14T14:12:28.828Z,30.47
2023-05-14T14:14:55.926Z,30.50
2023-05-14T14:17:23.115Z,30.44
2023-05-14T14:19:50.288Z,30.35
2023-05-14T14:22:17.683Z,30.28
2023-05-14T14:24:44.862Z,30.36
2023-05-14T14:27:12.094Z,30.36
2023-05-14T14:29:39.206Z,30.29
2023-05-14T14:32:06.777Z,30.28
2023-05-14T14:34:33.985Z,30.33
2023-05-14T14:37:01.116Z,30.29
2023-05-14T14:39:28.384Z,30.22
2023-05-14T14:41:55.592Z,30.25
2023-05-14T14:44:22.849Z,30.25
2023-05-14T14:46:49.855Z,30.22
2023-05-14T14:49:17.050Z,30.18
2023-05-14T14:51:44.260Z,30.27
2023-05-14T14:54:11.366Z,30.24
2023-05-14T14:56:39.253Z,30.22
2023-05-14T14:59:06.332Z,30.16
2023-05-14T15:01:33.570Z,30.09
2023-05-14T15:04:00.715Z,30.16
2023-05-14T15:06:28.067Z,30.09
2023-05-14T15:08:55.182Z,30.11
2023-05-14T15:11:22.469Z,30.12
2023-05-14T15:13:49.718Z,30.10
2023-05-14T15:16:17.040Z,30.08
2023-05-14T15:18:44.279Z,30.17
2023-05-14T15:21:11.509Z,29.98
2023-05-14T15:23:38.628Z,29.91
2023-05-14T15:26:05.960Z,29.94
2023-05-14T15:28:33.341Z,30.06
2023-05-14T15:31:02.519Z,29.89
2023-05-14T15:33:29.806Z,29.99
2023-05-14T15:35:56.944Z,30.01
2023-05-14T15:38:24.079Z,30.07
2023-05-14T15:40:51.343Z,29.94
2023-05-14T15:43:18.507Z,29.96
2023-05-14T15:45:46.241Z,29.93
2023-05-14T15:48:13.461Z,29.88
2023-05-14T15:50:40.791Z,29.86
2023-05-14T15:53:08.565Z,29.87
2023-05-14T15:55:35.783Z,29.87
2023-05-14T15:58:03.260Z,29.93
2023-05-14T16:00:30.410Z,29.92
2023-05-14T16:02:57.612Z,29.90
2023-05-14T16:05:24.825Z,29.83
2023-05-14T16:07:52.319Z,29.77
2023-05-14T16:10:21.270Z,29.88
2023-05-14T16:12:48.529Z,29.84
2023-05-14T16:15:15.995Z,29.83
2023-05-14T16:17:43.069Z,29.83
2023-05-14T16:20:11.162Z,29.83
2023-05-14T16:22:38.383Z,29.85
2023-05-14T16:25:05.991Z,29.93
2023-05-14T16:27:33.332Z,29.86
2023-05-14T16:30:00.556Z,29.85
2023-05-14T16:32:28.057Z,29.83
2023-05-14T16:34:56.507Z,29.77
2023-05-14T16:37:23.792Z,29.85
2023-05-14T16:39:50.939Z,29.90
2023-05-14T16:42:18.024Z,29.81
2023-05-14T16:44:45.146Z,29.71
2023-05-14T16:47:12.220Z,30.03
2023-05-14T16:49:39.388Z,30.12
2023-05-14T16:52:07.009Z,29.97
2023-05-14T16:54:34.104Z,29.93
2023-05-14T16:57:01.167Z,29.92
2023-05-14T16:59:28.263Z,29.86
2023-05-14T17:01:55.485Z,29.98
2023-05-14T17:04:25.019Z,30.06
2023-05-14T17:06:52.388Z,30.01
2023-05-14T17:09:19.638Z,30.08
2023-05-14T17:11:46.748Z,29.95
2023-05-14T17:14:13.678Z,29.94
2023-05-14T17:16:42.410Z,30.03
2023-05-14T17:19:09.502Z,30.04
2023-05-14T17:21:36.705Z,30.04
2023-05-14T17:24:03.940Z,30.12
2023-05-14T17:26:31.092Z,30.16
2023-05-14T17:28:58.212Z,30.10
2023-05-14T17:31:25.399Z,30.10
2023-05-14T17:33:52.533Z,30.07
2023-05-14T17:36:19.686Z,29.97
2023-05-14T17:38:46.835Z,30.14
2023-05-14T17:41:14.034Z,30.19
2023-05-14T17:43:41.151Z,30.21
2023-05-14T17:46:08.192Z,30.24
2023-05-14T17:48:35.273Z,30.27
2023-05-14T17:51:02.365Z,30.26
2023-05-14T17:53:29.445Z,30.31
2023-05-14T17:55:56.605Z,30.26
2023-05-14T17:58:25.195Z,30.37
2023-05-14T18:00:52.397Z,30.32
2023-05-14T18:03:20.485Z,30.39
2023-05-14T18:05:47.783Z,30.35
2023-05-14T18:08:15.210Z,30.38
2023-05-14T18:10:42.397Z,30.41
2023-05-14T18:13:09.492Z,30.41
2023-05-14T18:15:37.066Z,30.49
2023-05-14T18:18:04.767Z,30.52
2023-05-14T18:20:33.396Z,30.59
2023-05-14T18:23:02.228Z,30.47
2023-05-14T18:25:29.556Z,30.53
2023-05-14T18:27:56.668Z,30.59
2023-05-14T18:30:23.732Z,30.56
2023-05-14T18:32:51.071Z,30.65
2023-05-14T18:35:18.402Z,30.61
2023-05-14T18:37:46.119Z,30.89
2023-05-14T18:40:16.867Z,30.86
2023-05-14T18:42:45.558Z,30.79
2023-05-14T18:45:12.807Z,30.93
2023-05-14T18:47:40.125Z,30.84
2023-05-14T18:50:08.358Z,31.01
2023-05-14T18:52:35.465Z,30.98
2023-05-14T18:55:02.705Z,30.87
2023-05-14T18:57:32.244Z,31.17
2023-05-14T19:00:02.056Z,31.16
2023-05-14T19:02:29.253Z,31.13
2023-05-14T19:04:56.563Z,31.10
2023-05-14T19:07:23.653Z,31.18
2023-05-14T19:09:51.074Z,31.30
2023-05-14T19:12:18.181Z,31.31
2023-05-14T19:14:45.409Z,31.25
2023-05-14T19:17:12.555Z,31.32
2023-05-14T19:19:39.756Z,31.52
2023-05-14T19:22:07.157Z,31.64
2023-05-14T19:24:34.399Z,31.31
2023-05-14T19:27:01.621Z,31.53
2023-05-14T19:29:28.750Z,31.61
2023-05-14T19:31:56.128Z,31.59
2023-05-14T19:34:23.699Z,31.66
2023-05-14T19:36:50.984Z,31.63
2023-05-14T19:39:18.160Z,31.80
2023-05-14T19:41:45.362Z,31.69
2023-05-14T19:44:12.519Z,31.69
2023-05-14T19:46:39.690Z,31.88
2023-05-14T19:49:06.879Z,31.86
2023-05-14T19:51:33.973Z,31.83
2023-05-14T19:54:01.283Z,32.00
2023-05-14T19:56:28.511Z,31.95
2023-05-14T19:58:55.748Z,32.10
2023-05-14T20:01:23.105Z,32.12
2023-05-14T20:03:50.526Z,32.07
2023-05-14T20:06:18.555Z,32.07
2023-05-14T20:08:45.738Z,32.27
2023-05-14T20:11:12.833Z,32.33
2023-05-14T20:13:39.978Z,32.21
2023-05-14T20:16:07.252Z,32.31
2023-05-14T20:18:34.468Z,32.52
2023-05-14T20:21:01.775Z,32.42
2023-05-14T20:23:28.938Z,32.74
2023-05-14T20:25:56.277Z,32.66
2023-05-14T20:28:23.349Z,32.63
2023-05-14T20:30:50.384Z,32.78
2023-05-14T20:33:17.674Z,32.82
2023-05-14T20:35:44.962Z,32.83
2023-05-14T20:38:13.491Z,32.74
2023-05-14T20:40:40.892Z,32.77
2023-05-14T20:43:08.084Z,32.84
2023-05-14T20:45:35.335Z,33.01
2023-05-14T20:48:02.548Z,32.91
2023-05-14T20:50:29.723Z,33.09
2023-05-14T20:52:56.915Z,33.26
2023-05-14T20:55:24.371Z,33.24
2023-05-14T20:57:51.633Z,33.06
2023-05-14T21:00:19.438Z,33.38
2023-05-14T21:02:46.695Z,33.20
2023-05-14T21:05:14.188Z,33.52
2023-05-14T21:07:41.324Z,33.25
2023-05-14T21:10:09.499Z,33.44
2023-05-14T21:12:36.721Z,33.44
2023-05-14T21:15:04.056Z,33.56
2023-05-14T21:17:31.503Z,33.59
2023-05-14T21:19:58.703Z,33.52
2023-05-14T21:22:27.500Z,33.47
2023-05-14T21:24:56.138Z,33.59
2023-05-14T21:27:23.437Z,33.75
2023-05-14T21:29:50.659Z,33.77
2023-05-14T21:32:19.284Z,33.63
2023-05-14T21:34:46.331Z,33.77
2023-05-14T21:37:13.478Z,33.90
2023-05-14T21:39:40.990Z,33.82
2023-05-14T21:42:09.066Z,33.87
2023-05-14T21:44:36.211Z,33.89
2023-05-14T21:47:04.056Z,34.12
2023-05-14T21:49:31.178Z,34.02
2023-05-14T21:51:58.349Z,34.14
2023-05-14T21:54:25.474Z,34.17
2023-05-14T21:56:52.497Z,34.26
2023-05-14T21:59:19.855Z,34.27
2023-05-14T22:02:05.447Z,34.32
2023-05-14T22:04:33.839Z,34.32
2023-05-14T22:07:00.993Z,34.33
2023-05-14T22:09:28.067Z,34.54
2023-05-14T22:11:55.756Z,34.57
2023-05-14T22:14:22.928Z,34.40
2023-05-14T22:16:50.285Z,34.45
2023-05-14T22:19:17.659Z,34.50
2023-05-14T22:21:44.789Z,34.60
2023-05-14T22:24:11.777Z,34.54
2023-05-14T22:26:38.994Z,34.69
2023-05-14T22:29:06.110Z,34.73
2023-05-14T22:31:33.400Z,34.55
2023-05-14T22:34:00.587Z,34.71
2023-05-14T22:36:27.766Z,34.84
2023-05-14T22:38:55.187Z,35.04
2023-05-14T22:41:22.340Z,35.03
2023-05-14T22:43:49.623Z,34.97
2023-05-14T22:46:16.742Z,35.10
2023-05-14T22:48:44.965Z,35.07
2023-05-14T22:51:12.039Z,34.93
2023-05-14T22:53:39.132Z,34.96
2023-05-14T22:56:06.435Z,35.05
2023-05-14T22:58:33.646Z,35.06
2023-05-14T23:01:00.754Z,35.17
2023-05-14T23:03:28.040Z,35.17
2023-05-14T23:05:55.258Z,35.29
2023-05-14T23:08:22.311Z,35.36
2023-05-14T23:10:49.424Z,35.24
2023-05-14T23:13:16.682Z,35.32
2023-05-14T23:15:44.395Z,35.48
2023-05-14T23:18:11.708Z,35.42
2023-05-14T23:20:38.881Z,35.54
2023-05-14T23:23:06.517Z,35.47
2023-05-14T23:25:33.537Z,35.54
2023-05-14T23:28:00.791Z,35.61
2023-05-14T23:30:27.891Z,35.61
2023-05-14T23:32:55.052Z,35.54
2023-05-14T23:35:22.323Z,35.74
2023-05-14T23:37:51.022Z,35.78
2023-05-14T23:40:18.327Z,35.78
2023-05-14T23:42:45.559Z,35.66
2023-05-14T23:45:13.493Z,35.76
2023-05-14T23:47:41.311Z,35.79
2023-05-14T23:50:08.985Z,35.98
2023-05-14T23:52:36.062Z,35.87
2023-05-14T23:55:03.298Z,35.80
2023-05-14T23:57:30.629Z,35.90
2023-05-14T23:59:57.871Z,35.87
